Time;durP1;ratioP1;P1;durP2;ratioP2;P2;SDS_P1;SDS_P2;PMS_P1;PMS_P2;Temp;Humidity;BMP_temperature;BMP_pressure;BME280_temperature;BME280_humidity;BME280_pressure;Samples;Min_cycle;Max_cycle;Signal;HPM_P1;HPM_P2
2023/02/28 00:02:13;;;;;;;3.92;2.05;;;;;;;2.94;100.00;103273.50;5007348;28;20385;-70
2023/02/28 00:04:38;;;;;;;4.45;1.80;;;;;;;2.94;100.00;103273.50;5008142;28;20086;-70
2023/02/28 00:07:03;;;;;;;6.18;2.20;;;;;;;2.92;100.00;103276.88;5008595;28;20061;-69
2023/02/28 00:09:29;;;;;;;3.45;1.80;;;;;;;3.09;100.00;103275.78;5008894;28;20121;-68
2023/02/28 00:11:54;;;;;;;4.88;1.77;;;;;;;3.03;100.00;103281.66;5007377;28;20022;-68
2023/02/28 00:14:19;;;;;;;3.05;1.70;;;;;;;3.05;100.00;103280.84;5006859;28;20040;-68
2023/02/28 00:16:45;;;;;;;6.55;2.50;;;;;;;3.08;100.00;103279.25;5006575;28;20064;-68
2023/02/28 00:19:13;;;;;;;3.63;1.50;;;;;;;3.13;100.00;103279.41;5007684;28;20061;-69
2023/02/28 00:21:40;;;;;;;6.63;1.90;;;;;;;3.08;100.00;103279.25;5007312;28;20024;-69
2023/02/28 00:24:06;;;;;;;6.32;1.90;;;;;;;3.07;100.00;103279.19;5007894;28;20086;-68
2023/02/28 00:26:31;;;;;;;3.88;1.83;;;;;;;3.14;100.00;103284.69;5004723;28;20030;-70
2023/02/28 00:28:57;;;;;;;5.47;2.15;;;;;;;3.23;100.00;103278.91;5007360;28;20029;-69
2023/02/28 00:31:22;;;;;;;4.72;1.88;;;;;;;3.34;100.00;103275.81;5006013;28;20026;-69
2023/02/28 00:33:47;;;;;;;4.07;1.77;;;;;;;3.27;100.00;103278.19;5006322;28;20048;-68
2023/02/28 00:36:13;;;;;;;3.05;1.65;;;;;;;3.35;100.00;103274.97;5007047;28;20110;-68
2023/02/28 00:38:39;;;;;;;4.53;1.83;;;;;;;3.39;100.00;103282.06;5004307;28;20057;-70
2023/02/28 00:41:05;;;;;;;4.22;1.73;;;;;;;3.49;100.00;103278.94;4988018;28;20027;-69
2023/02/28 00:43:32;;;;;;;5.97;1.90;;;;;;;3.49;100.00;103275.47;4987540;28;20037;-69
2023/02/28 00:45:57;;;;;;;4.38;1.70;;;;;;;3.53;100.00;103277.34;4985566;28;20046;-68
2023/02/28 00:48:23;;;;;;;3.53;1.95;;;;;;;3.62;100.00;103276.78;4985784;28;20506;-69
2023/02/28 00:50:49;;;;;;;13.80;2.17;;;;;;;3.66;100.00;103278.66;4986181;28;20357;-68
2023/02/28 00:53:14;;;;;;;3.72;1.75;;;;;;;3.61;100.00;103270.66;4986678;28;20184;-70
2023/02/28 00:55:40;;;;;;;6.88;2.00;;;;;;;3.57;100.00;103263.56;4987056;28;20490;-70
2023/02/28 00:58:05;;;;;;;3.97;1.58;;;;;;;3.40;100.00;103268.19;4987900;28;20061;-69
2023/02/28 01:00:30;;;;;;;5.35;2.17;;;;;;;3.54;100.00;103274.78;4998333;28;20087;-68
2023/02/28 01:02:56;;;;;;;4.20;1.50;;;;;;;3.72;100.00;103277.97;4999298;28;20121;-70
2023/02/28 01:05:21;;;;;;;9.27;2.35;;;;;;;3.75;100.00;103278.97;4995083;28;20385;-68
2023/02/28 01:07:46;;;;;;;4.45;1.92;;;;;;;3.73;100.00;103280.63;4992531;28;20501;-70
2023/02/28 01:10:12;;;;;;;2.55;1.70;;;;;;;3.77;100.00;103286.84;4996772;28;20030;-69
2023/02/28 01:12:37;;;;;;;1.85;1.60;;;;;;;3.68;100.00;103284.81;4996203;28;20030;-69
2023/02/28 01:15:03;;;;;;;6.90;2.17;;;;;;;3.65;100.00;103279.50;4986981;28;20033;-69
2023/02/28 01:17:28;;;;;;;4.38;1.85;;;;;;;3.75;100.00;103278.97;4992179;28;20074;-70
2023/02/28 01:19:55;;;;;;;2.80;1.88;;;;;;;3.76;100.00;103277.22;4988651;28;20061;-69
2023/02/28 01:22:21;;;;;;;3.95;1.80;;;;;;;3.84;100.00;103278.38;4995132;28;20041;-68
2023/02/28 01:24:46;;;;;;;2.17;1.67;;;;;;;3.76;100.00;103282.44;4996485;28;20030;-69
2023/02/28 01:27:11;;;;;;;3.10;1.83;;;;;;;3.72;100.00;103289.28;4994786;28;20390;-69
2023/02/28 01:29:37;;;;;;;3.63;1.60;;;;;;;3.77;100.00;103279.88;4990130;28;20382;-69
2023/02/28 01:32:02;;;;;;;3.20;1.75;;;;;;;3.82;100.00;103274.84;4988783;28;20390;-68
2023/02/28 01:34:27;;;;;;;7.88;4.07;;;;;;;3.79;100.00;103270.41;4987128;28;20936;-69
2023/02/28 01:36:53;;;;;;;3.40;1.88;;;;;;;3.86;100.00;103281.94;4992469;28;20512;-69
2023/02/28 01:39:18;;;;;;;4.53;1.90;;;;;;;3.95;100.00;103278.75;4993793;28;20029;-69
2023/02/28 01:41:43;;;;;;;2.47;1.98;;;;;;;3.88;100.00;103284.56;4989106;28;20038;-68
2023/02/28 01:44:46;;;;;;;4.63;1.90;;;;;;;3.90;100.00;103282.91;4989242;28;20062;-69
2023/02/28 01:47:12;;;;;;;4.65;2.15;;;;;;;3.77;100.00;103272.06;4988629;28;20069;-68
2023/02/28 01:49:37;;;;;;;4.50;2.13;;;;;;;3.83;100.00;103270.50;4988730;28;20030;-68
2023/02/28 01:52:03;;;;;;;4.03;1.95;;;;;;;3.84;100.00;103267.06;4982760;28;20105;-69
2023/02/28 01:54:33;;;;;;;2.80;1.90;;;;;;;3.79;100.00;103259.97;4983624;28;20075;-69
2023/02/28 01:57:03;;;;;;;5.03;1.90;;;;;;;3.86;100.00;103260.19;4984245;28;20084;-68
2023/02/28 01:59:37;;;;;;;4.22;1.95;;;;;;;3.76;100.00;103264.19;4985237;28;20038;-69
2023/02/28 02:02:02;;;;;;;6.25;2.30;;;;;;;3.85;100.00;103255.81;4985689;28;20026;-69
2023/02/28 02:04:37;;;;;;;5.90;2.05;;;;;;;3.84;100.00;103259.25;4983115;28;20027;-70
2023/02/28 02:07:03;;;;;;;4.78;1.55;;;;;;;3.70;100.00;103251.84;4984900;28;20033;-68
2023/02/28 02:09:28;;;;;;;2.97;1.90;;;;;;;3.72;100.00;103247.56;4984127;28;20038;-68
2023/02/28 02:11:55;;;;;;;5.70;2.30;;;;;;;3.76;100.00;103248.53;4986320;28;20068;-67
2023/02/28 02:14:57;;;;;;;3.05;2.20;;;;;;;3.76;100.00;103252.03;4984154;28;20033;-68
2023/02/28 02:17:34;;;;;;;9.10;2.63;;;;;;;3.88;100.00;103253.28;4985277;28;20036;-68
2023/02/28 02:20:32;;;;;;;5.80;2.30;;;;;;;3.76;100.00;103249.44;4984083;28;20026;-68
2023/02/28 02:23:19;;;;;;;5.50;2.30;;;;;;;3.83;100.00;103242.72;4985103;28;20080;-69
2023/02/28 02:25:54;;;;;;;4.53;2.15;;;;;;;3.86;100.00;103245.44;4986116;28;20034;-69
2023/02/28 02:28:40;;;;;;;9.60;2.20;;;;;;;3.94;100.00;103239.59;4984361;28;20115;-70
2023/02/28 02:31:14;;;;;;;4.03;2.03;;;;;;;3.93;100.00;103238.69;4986630;28;20041;-68
2023/02/28 02:33:58;;;;;;;7.38;2.65;;;;;;;4.03;100.00;103224.19;4985325;28;20034;-70
2023/02/28 02:36:32;;;;;;;10.35;2.47;;;;;;;4.03;100.00;103222.50;4986645;28;20023;-69
2023/02/28 02:39:11;;;;;;;8.13;2.28;;;;;;;4.09;100.00;103220.94;4989727;28;20924;-69
2023/02/28 02:41:51;;;;;;;3.20;2.22;;;;;;;4.02;100.00;103227.66;4990430;28;20050;-69
2023/02/28 02:44:26;;;;;;;;;;;;;;;4.16;100.00;103222.88;4990379;28;20026;-67
2023/02/28 02:46:57;;;;;;;5.50;2.13;;;;;;;4.23;100.00;103222.25;5007189;28;20527;-69
2023/02/28 02:49:27;;;;;;;3.75;2.17;;;;;;;4.09;100.00;103221.78;4996968;28;20038;-69
2023/02/28 02:51:53;;;;;;;4.05;2.13;;;;;;;4.02;100.00;103225.03;5004396;28;20079;-68
2023/02/28 02:54:21;;;;;;;6.43;2.58;;;;;;;4.08;100.00;103232.19;4988065;28;20027;-68
2023/02/28 02:56:48;;;;;;;6.80;2.58;;;;;;;4.08;100.00;103226.97;4988482;28;20052;-69
2023/02/28 02:59:20;;;;;;;7.38;2.97;;;;;;;4.17;100.00;103224.66;4989432;28;20027;-69
2023/02/28 03:01:49;;;;;;;5.88;2.45;;;;;;;4.10;100.00;103233.13;4989987;28;20029;-68
2023/02/28 03:04:19;;;;;;;4.60;2.60;;;;;;;4.21;100.00;103225.66;4971234;28;20022;-69
2023/02/28 03:06:44;;;;;;;9.73;3.08;;;;;;;4.12;100.00;103231.47;5073474;28;20042;-68
2023/02/28 03:09:09;;;;;;;10.65;2.78;;;;;;;4.11;100.00;103230.56;4988707;28;20030;-69
2023/02/28 03:11:35;;;;;;;7.50;3.13;;;;;;;4.14;100.00;103235.00;5005829;28;20038;-69
2023/02/28 03:14:28;;;;;;;4.95;2.92;;;;;;;4.06;100.00;103237.34;4987717;28;20033;-69
2023/02/28 03:17:20;;;;;;;8.27;3.30;;;;;;;4.06;100.00;103236.47;4987607;28;20045;-68
2023/02/28 03:19:49;;;;;;;11.57;3.35;;;;;;;3.95;100.00;103238.72;4987580;28;20022;-68
2023/02/28 03:22:14;;;;;;;5.97;2.90;;;;;;;4.15;100.00;103234.13;5008094;28;20485;-69
2023/02/28 03:25:18;;;;;;;6.13;2.58;;;;;;;4.22;100.00;103245.69;5007670;28;20064;-70
2023/02/28 03:28:14;;;;;;;5.93;3.08;;;;;;;4.18;100.00;103242.06;5012647;28;20049;-69
2023/02/28 03:30:53;;;;;;;5.60;3.13;;;;;;;4.17;100.00;103238.59;5006156;28;20079;-68
2023/02/28 03:33:23;;;;;;;8.95;3.25;;;;;;;4.23;100.00;103240.50;5005026;28;20099;-68
2023/02/28 03:35:53;;;;;;;10.73;3.33;;;;;;;4.25;100.00;103240.56;5006930;28;20044;-70
2023/02/28 03:38:24;;;;;;;6.13;3.10;;;;;;;4.28;100.00;103233.69;5007072;28;20150;-68
2023/02/28 03:40:53;;;;;;;7.35;2.90;;;;;;;4.37;100.00;103237.44;4980235;28;20069;-68
2023/02/28 03:43:20;;;;;;;;;;;;;;;4.38;100.00;103237.50;4987600;28;20037;-68
2023/02/28 03:45:46;;;;;;;5.78;3.60;;;;;;;4.33;100.00;103235.59;4986057;28;19921;-70
2023/02/28 03:48:45;;;;;;;7.32;3.70;;;;;;;4.37;100.00;103232.22;4986839;28;20442;-68
2023/02/28 03:51:15;;;;;;;6.80;3.03;;;;;;;4.45;100.00;103237.69;4985770;28;20109;-69
2023/02/28 03:53:53;;;;;;;5.25;3.20;;;;;;;4.50;100.00;103228.25;4986284;28;20023;-70
2023/02/28 03:56:34;;;;;;;10.32;3.35;;;;;;;4.40;100.00;103234.94;4986915;28;20036;-69
2023/02/28 03:59:10;;;;;;;6.28;3.20;;;;;;;4.44;100.00;103223.72;4986818;28;20067;-69
2023/02/28 04:01:41;;;;;;;4.57;3.42;;;;;;;4.37;100.00;103232.22;5002295;28;20025;-70
2023/02/28 04:04:07;;;;;;;10.93;4.00;;;;;;;4.33;100.00;103227.75;5006169;28;20026;-69
2023/02/28 04:06:33;;;;;;;7.85;3.85;;;;;;;4.38;100.00;103226.16;5005844;28;20557;-69
2023/02/28 04:08:59;;;;;;;7.20;3.50;;;;;;;4.28;100.00;103223.25;5002260;28;20056;-70
2023/02/28 04:11:32;;;;;;;4.55;3.25;;;;;;;4.31;100.00;103230.31;4985700;28;20019;-68
2023/02/28 04:13:57;;;;;;;6.05;3.67;;;;;;;4.33;100.00;103225.16;4986445;28;20041;-68
2023/02/28 04:16:22;;;;;;;11.55;3.92;;;;;;;4.32;100.00;103234.69;4988178;28;20030;-67
2023/02/28 04:18:47;;;;;;;4.65;3.20;;;;;;;4.41;100.00;103244.53;4988199;28;20091;-67
2023/02/28 04:21:13;;;;;;;5.95;3.55;;;;;;;4.36;100.00;103240.91;4999279;28;20113;-68
2023/02/28 04:23:38;;;;;;;9.13;3.53;;;;;;;4.41;100.00;103249.75;5018144;28;20129;-69
2023/02/28 04:26:05;;;;;;;10.98;3.65;;;;;;;4.37;100.00;103237.44;5025665;28;20026;-68
2023/02/28 04:28:30;;;;;;;8.48;3.53;;;;;;;4.37;100.00;103242.66;5026974;28;20071;-69
2023/02/28 04:31:01;;;;;;;9.98;3.95;;;;;;;4.50;100.00;103252.66;4986299;28;20027;-68
2023/02/28 04:33:27;;;;;;;5.90;3.50;;;;;;;4.42;100.00;103260.25;4985705;28;20022;-68
2023/02/28 04:36:04;;;;;;;11.70;4.03;;;;;;;4.26;100.00;103256.25;4986867;28;20099;-69
2023/02/28 04:38:33;;;;;;;10.13;4.38;;;;;;;3.97;100.00;103250.97;4986753;28;20048;-71
2023/02/28 04:40:59;;;;;;;7.00;3.47;;;;;;;3.95;100.00;103255.28;4986479;28;20117;-68
2023/02/28 04:43:27;;;;;;;7.07;3.65;;;;;;;3.88;100.00;103248.06;4985733;28;20489;-68
2023/02/28 04:45:52;;;;;;;4.43;3.67;;;;;;;3.78;100.00;103250.38;4986243;28;20449;-68
2023/02/28 04:48:17;;;;;;;7.13;3.95;;;;;;;3.71;100.00;103256.25;4985812;28;20050;-69
2023/02/28 04:50:43;;;;;;;5.72;3.70;;;;;;;3.70;100.00;103246.63;5002964;28;20032;-69
2023/02/28 04:53:08;;;;;;;6.80;3.97;;;;;;;3.82;100.00;103256.56;5006325;28;20537;-70
2023/02/28 04:55:34;;;;;;;8.45;4.43;;;;;;;3.66;100.00;103252.56;5006938;28;20029;-69
2023/02/28 04:57:59;;;;;;;12.63;4.32;;;;;;;3.76;100.00;103252.03;5022120;28;20034;-68
2023/02/28 05:00:25;;;;;;;6.13;4.20;;;;;;;3.79;100.00;103254.75;5015471;28;20489;-69
2023/02/28 05:02:50;;;;;;;9.43;4.80;;;;;;;3.76;100.00;103256.38;4985711;28;20057;-69
2023/02/28 05:05:17;;;;;;;12.90;4.85;;;;;;;3.64;100.00;103251.63;4987123;28;20053;-69
2023/02/28 05:07:44;;;;;;;8.77;4.82;;;;;;;3.74;100.00;103255.44;4987235;28;20030;-69
2023/02/28 05:10:10;;;;;;;9.95;4.78;;;;;;;3.75;100.00;103252.91;4986756;28;20035;-70
2023/02/28 05:12:35;;;;;;;7.88;5.05;;;;;;;3.72;100.00;103247.56;4987477;28;20033;-69
2023/02/28 05:15:02;;;;;;;9.55;5.07;;;;;;;3.74;100.00;103245.00;4986234;28;20026;-69
2023/02/28 05:17:27;;;;;;;8.57;4.72;;;;;;;3.89;100.00;103248.13;4984433;28;20077;-69
2023/02/28 05:19:52;;;;;;;8.98;4.72;;;;;;;3.91;100.00;103253.38;4986578;28;20415;-68
2023/02/28 05:22:18;;;;;;;11.95;4.95;;;;;;;3.86;100.00;103252.38;4988298;28;20113;-70
2023/02/28 05:24:43;;;;;;;8.65;4.70;;;;;;;3.93;100.00;103256.94;5004331;28;20109;-69
2023/02/28 05:27:09;;;;;;;8.98;4.90;;;;;;;3.84;100.00;103254.91;5005558;28;20121;-69
2023/02/28 05:29:41;;;;;;;13.43;5.22;;;;;;;3.81;100.00;103251.31;5005098;28;20110;-68
2023/02/28 05:32:08;;;;;;;9.18;5.28;;;;;;;3.74;100.00;103250.22;5006072;28;20071;-69
2023/02/28 05:34:33;;;;;;;8.63;5.28;;;;;;;3.88;100.00;103254.19;5005609;28;20027;-68
2023/02/28 05:36:58;;;;;;;7.93;5.13;;;;;;;3.99;100.00;103251.03;5006126;28;20538;-69
2023/02/28 05:39:24;;;;;;;11.27;5.43;;;;;;;4.00;100.00;103250.22;5005963;28;20497;-69
2023/02/28 05:41:49;;;;;;;7.20;5.25;;;;;;;4.06;100.00;103252.13;4986965;28;20025;-68
2023/02/28 05:44:15;;;;;;;11.65;5.50;;;;;;;4.23;100.00;103248.34;5003848;28;20026;-69
2023/02/28 05:46:41;;;;;;;7.20;4.85;;;;;;;4.43;100.00;103259.38;5004126;28;20136;-70
2023/02/28 05:49:06;;;;;;;11.63;5.22;;;;;;;4.35;100.00;103260.00;5000634;28;20034;-68
2023/02/28 05:51:31;;;;;;;8.55;5.22;;;;;;;4.20;100.00;103270.81;4986058;28;20038;-69
2023/02/28 05:54:01;;;;;;;8.32;4.70;;;;;;;4.01;100.00;103258.06;4990895;28;20054;-69
2023/02/28 05:56:26;;;;;;;7.55;5.10;;;;;;;4.00;100.00;103252.81;5025719;28;20029;-69
2023/02/28 05:58:51;;;;;;;10.50;5.65;;;;;;;3.97;100.00;103253.59;5024332;28;20377;-69
2023/02/28 06:01:34;;;;;;;8.68;5.88;;;;;;;4.09;100.00;103244.41;5011838;28;20026;-68
2023/02/28 06:04:00;;;;;;;10.70;5.55;;;;;;;4.07;100.00;103251.28;5005072;28;20045;-69
2023/02/28 06:06:26;;;;;;;8.95;5.40;;;;;;;3.94;100.00;103252.63;5004669;28;20030;-69
2023/02/28 06:08:51;;;;;;;7.80;5.13;;;;;;;3.97;100.00;103250.97;5002493;28;20079;-70
2023/02/28 06:11:17;;;;;;;7.70;5.13;;;;;;;3.95;100.00;103243.94;4988848;28;20038;-71
2023/02/28 06:13:42;;;;;;;8.60;5.18;;;;;;;3.96;100.00;103250.94;5004019;28;20010;-69
2023/02/28 06:16:10;;;;;;;7.72;5.63;;;;;;;3.94;100.00;103253.50;4990029;28;20057;-69
2023/02/28 06:18:36;;;;;;;6.97;4.55;;;;;;;3.75;100.00;103254.59;4989753;28;20029;-68
2023/02/28 06:21:01;;;;;;;5.53;3.40;;;;;;;3.51;100.00;103252.94;5008537;28;20030;-68
2023/02/28 06:23:27;;;;;;;6.00;3.40;;;;;;;3.38;100.00;103251.63;5008169;28;20044;-69
2023/02/28 06:25:53;;;;;;;5.93;3.38;;;;;;;3.39;100.00;103254.28;5009057;28;20060;-68
2023/02/28 06:28:18;;;;;;;4.25;2.65;;;;;;;3.52;100.00;103259.91;5002388;28;20090;-68
2023/02/28 06:30:44;;;;;;;3.15;2.38;;;;;;;3.51;100.00;103258.13;4999821;28;20416;-68
2023/02/28 06:33:09;;;;;;;4.60;2.60;;;;;;;3.45;100.00;103253.59;5006414;28;20029;-70
2023/02/28 06:35:35;;;;;;;3.97;2.50;;;;;;;3.45;100.00;103258.81;5008466;28;20030;-69
2023/02/28 06:38:00;;;;;;;4.80;3.10;;;;;;;3.34;100.00;103260.16;5008415;28;20040;-68
2023/02/28 06:40:26;;;;;;;7.10;2.50;;;;;;;3.31;100.00;103262.66;5007476;28;20465;-68
2023/02/28 06:42:51;;;;;;;5.25;3.05;;;;;;;3.29;100.00;103267.81;5007758;28;20190;-68
2023/02/28 06:45:17;;;;;;;3.75;3.08;;;;;;;3.44;100.00;103267.47;4997340;28;20478;-68
2023/02/28 06:47:43;;;;;;;5.55;3.60;;;;;;;3.41;100.00;103265.63;4998166;28;20033;-69
2023/02/28 06:50:10;;;;;;;7.05;3.22;;;;;;;3.23;100.00;103275.41;5006593;28;20045;-71
2023/02/28 06:52:37;;;;;;;4.65;3.13;;;;;;;3.37;100.00;103278.53;5008616;28;20028;-68
2023/02/28 06:55:04;;;;;;;7.20;3.70;;;;;;;3.14;100.00;103279.47;5008109;28;20014;-70
2023/02/28 06:57:30;;;;;;;8.40;3.55;;;;;;;2.96;100.00;103282.28;5007230;28;20061;-69
2023/02/28 07:00:04;;;;;;;7.53;3.13;;;;;;;3.06;100.00;103287.81;5008118;28;20457;-68
2023/02/28 07:02:31;;;;;;;5.63;3.17;;;;;;;3.08;100.00;103286.16;4987327;28;20059;-68
2023/02/28 07:04:56;;;;;;;4.07;2.78;;;;;;;2.89;100.00;103290.69;5000555;28;20041;-69
2023/02/28 07:07:22;;;;;;;3.38;2.88;;;;;;;2.68;100.00;103291.63;4988554;28;20032;-69
2023/02/28 07:09:47;;;;;;;7.10;3.67;;;;;;;2.58;100.00;103295.59;5001302;28;20018;-68
2023/02/28 07:12:12;;;;;;;6.78;3.38;;;;;;;2.56;100.00;103297.22;5000201;28;20026;-70
2023/02/28 07:14:38;;;;;;;4.75;2.80;;;;;;;2.53;100.00;103300.59;4995949;28;20091;-69
2023/02/28 07:17:03;;;;;;;7.15;3.58;;;;;;;2.63;100.00;103301.88;5005225;28;20082;-68
2023/02/28 07:19:28;;;;;;;4.78;3.67;;;;;;;2.62;100.00;103307.88;5007710;28;20090;-67
2023/02/28 07:21:54;;;;;;;8.13;3.80;;;;;;;2.76;100.00;103308.44;5006387;28;20025;-68
2023/02/28 07:24:20;;;;;;;4.43;3.25;;;;;;;2.67;100.00;103308.06;5008991;28;20060;-68
2023/02/28 07:26:45;;;;;;;6.53;3.45;;;;;;;2.62;100.00;103310.50;5008546;28;20072;-68
2023/02/28 07:29:11;;;;;;;7.18;4.22;;;;;;;2.64;100.00;103310.56;5007496;28;20481;-70
2023/02/28 07:31:36;;;;;;;6.57;4.40;;;;;;;2.67;100.00;103300.25;5008140;28;20108;-70
2023/02/28 07:34:02;;;;;;;7.38;4.18;;;;;;;2.58;100.00;103312.91;5005710;28;20371;-69
2023/02/28 07:36:27;;;;;;;7.30;4.18;;;;;;;2.50;100.00;103308.28;5006727;28;20021;-70
2023/02/28 07:38:53;;;;;;;7.20;4.13;;;;;;;2.39;100.00;103309.59;5007517;28;20057;-69
2023/02/28 07:41:21;;;;;;;10.32;4.78;;;;;;;2.37;100.00;103309.53;5007069;28;20022;-70
2023/02/28 07:43:46;;;;;;;5.70;3.58;;;;;;;2.42;100.00;103312.31;5002759;28;20034;-70
2023/02/28 07:46:14;;;;;;;7.35;4.15;;;;;;;2.52;100.00;103310.97;5002860;28;20018;-69
2023/02/28 07:48:40;;;;;;;12.48;4.60;;;;;;;2.45;100.00;103316.75;5006496;28;20091;-70
2023/02/28 07:51:05;;;;;;;10.45;4.80;;;;;;;2.44;100.00;103317.59;5003185;28;20030;-67
2023/02/28 07:53:31;;;;;;;7.00;4.97;;;;;;;2.31;100.00;103318.78;5005378;28;20026;-67
2023/02/28 07:55:57;;;;;;;8.75;5.47;;;;;;;2.42;100.00;103312.31;4998124;28;20124;-67
2023/02/28 07:58:23;;;;;;;9.80;5.22;;;;;;;2.48;100.00;103315.19;4996409;28;20026;-68
2023/02/28 08:00:49;;;;;;;7.93;5.25;;;;;;;2.51;100.00;103314.41;4994543;28;20086;-69
2023/02/28 08:03:15;;;;;;;10.98;5.18;;;;;;;2.59;100.00;103319.91;5004854;28;20014;-70
2023/02/28 08:05:40;;;;;;;7.10;5.22;;;;;;;2.78;100.00;103316.31;5004283;28;20551;-69
2023/02/28 08:08:06;;;;;;;6.28;4.75;;;;;;;2.77;100.00;103322.38;5007354;28;20048;-68
2023/02/28 08:10:32;;;;;;;5.78;4.38;;;;;;;2.70;100.00;103317.72;5006489;28;20104;-67
2023/02/28 08:12:57;;;;;;;7.97;5.07;;;;;;;2.69;100.00;103314.25;5005742;28;20299;-68
2023/02/28 08:15:23;;;;;;;7.15;4.53;;;;;;;2.72;100.00;103316.06;5006614;28;20030;-68
2023/02/28 08:17:48;;;;;;;6.97;5.28;;;;;;;2.73;100.00;103313.53;5004870;28;20022;-69
2023/02/28 08:20:13;;;;;;;7.15;4.60;;;;;;;2.91;100.00;103312.47;5004147;28;20033;-69
2023/02/28 08:22:39;;;;;;;10.45;6.88;;;;;;;2.72;100.00;103313.47;5002590;28;20073;-70
2023/02/28 08:25:06;;;;;;;9.27;7.07;;;;;;;2.84;100.00;103308.75;5006537;28;20037;-68
2023/02/28 08:27:32;;;;;;;11.77;7.10;;;;;;;2.99;100.00;103302.34;5006870;28;20030;-69
2023/02/28 08:29:57;;;;;;;5.68;5.05;;;;;;;3.01;100.00;103304.16;5007804;28;20238;-68
2023/02/28 08:32:22;;;;;;;7.70;5.93;;;;;;;3.11;100.00;103295.00;5007949;28;20033;-67
2023/02/28 08:34:48;;;;;;;7.28;6.05;;;;;;;3.31;100.00;103302.63;5007639;28;20029;-67
2023/02/28 08:37:13;;;;;;;9.75;5.28;;;;;;;3.45;100.00;103303.13;5007789;28;20116;-67
2023/02/28 08:39:39;;;;;;;7.35;5.60;;;;;;;3.40;100.00;103299.47;5009253;28;20109;-68
2023/02/28 08:42:04;;;;;;;7.65;5.22;;;;;;;3.27;100.00;103296.44;4992777;28;20154;-68
2023/02/28 08:44:29;;;;;;;7.55;5.05;;;;;;;3.14;100.00;103294.22;4988147;28;20052;-68
2023/02/28 08:46:55;;;;;;;5.53;4.03;;;;;;;3.02;100.00;103292.94;4985578;28;20216;-67
2023/02/28 08:49:20;;;;;;;6.15;5.03;;;;;;;3.15;100.00;103301.19;4986215;28;20026;-67
2023/02/28 08:51:46;;;;;;;5.38;4.78;;;;;;;3.34;100.00;103296.66;4998874;28;20063;-67
2023/02/28 08:54:19;;;;;;;7.55;5.10;;;;;;;3.06;100.00;103296.53;5005663;28;20030;-68
2023/02/28 08:56:44;;;;;;;7.28;4.93;;;;;;;2.99;100.00;103297.13;5006682;28;20428;-68
2023/02/28 08:59:10;;;;;;;7.90;5.57;;;;;;;3.11;100.00;103296.69;5005000;28;20022;-69
2023/02/28 09:01:36;;;;;;;6.10;5.32;;;;;;;3.13;100.00;103295.91;4991432;28;20030;-67
2023/02/28 09:04:02;;;;;;;6.78;5.45;;;;;;;3.10;100.00;103293.19;4984397;28;20023;-69
2023/02/28 09:06:27;;;;;;;8.88;6.70;;;;;;;3.25;100.00;103302.44;4993093;28;20129;-68
2023/02/28 09:08:53;;;;;;;10.27;6.63;;;;;;;3.36;100.00;103297.59;5002328;28;20026;-69
2023/02/28 09:11:19;;;;;;;8.27;5.97;;;;;;;3.40;100.00;103308.19;5002078;28;20440;-69
2023/02/28 09:13:45;;;;;;;10.35;6.45;;;;;;;3.44;100.00;103313.50;5001731;28;20030;-69
2023/02/28 09:16:13;;;;;;;7.40;5.97;;;;;;;3.47;100.00;103304.09;5004391;28;20032;-69
2023/02/28 09:18:39;;;;;;;8.02;6.10;;;;;;;3.48;100.00;103300.63;5005429;28;20029;-69
2023/02/28 09:21:10;;;;;;;9.60;6.85;;;;;;;3.53;100.00;103301.66;4997843;28;20038;-69
2023/02/28 09:23:38;;;;;;;9.07;6.43;;;;;;;3.75;100.00;103299.84;4987148;28;20034;-68
2023/02/28 09:26:03;;;;;;;12.73;7.05;;;;;;;3.93;100.00;103309.13;4985717;28;20431;-70
2023/02/28 09:28:29;;;;;;;10.85;6.53;;;;;;;3.82;100.00;103311.34;4985925;28;20137;-69
2023/02/28 09:30:54;;;;;;;9.70;6.80;;;;;;;3.64;100.00;103306.38;5001867;28;20289;-68
2023/02/28 09:33:20;;;;;;;8.65;6.10;;;;;;;3.77;100.00;103310.31;5002289;28;20026;-68
2023/02/28 09:35:47;;;;;;;7.25;5.22;;;;;;;3.88;100.00;103314.19;5003043;28;20469;-68
2023/02/28 09:38:12;;;;;;;8.07;5.63;;;;;;;3.90;100.00;103320.34;5004740;28;20022;-68
2023/02/28 09:40:52;;;;;;;9.10;5.60;;;;;;;3.83;100.00;103318.38;5000190;28;20030;-68
2023/02/28 09:43:17;;;;;;;;;;;;;;;4.02;100.00;103314.66;5001034;28;20040;-68
2023/02/28 09:45:49;;;;;;;8.88;4.90;;;;;;;3.92;100.00;103312.56;5003028;28;19910;-69
2023/02/28 09:48:19;;;;;;;16.60;5.20;;;;;;;3.88;100.00;103308.06;5002247;28;20129;-68
2023/02/28 09:50:44;;;;;;;6.05;4.63;;;;;;;3.92;100.00;103317.78;5002575;28;20098;-68
2023/02/28 09:53:22;;;;;;;8.60;5.15;;;;;;;3.91;100.00;103314.28;5004197;28;20030;-68
2023/02/28 09:55:55;;;;;;;9.27;4.97;;;;;;;4.16;100.00;103322.91;5001302;28;20041;-68
2023/02/28 09:58:27;;;;;;;9.70;5.05;;;;;;;4.25;100.00;103324.09;5000648;28;20481;-68
2023/02/28 10:01:01;;;;;;;5.13;4.15;;;;;;;4.41;100.00;103320.22;4998668;28;20030;-68
2023/02/28 10:03:39;;;;;;;6.43;4.40;;;;;;;4.32;100.00;103313.00;4997300;28;20534;-69
2023/02/28 10:06:11;;;;;;;5.55;4.70;;;;;;;4.34;100.00;103318.28;5003901;28;20025;-68
2023/02/28 10:08:44;;;;;;;7.95;4.60;;;;;;;4.37;100.00;103318.38;4987199;28;20026;-68
2023/02/28 10:11:13;;;;;;;6.82;4.70;;;;;;;4.50;100.00;103314.41;5003329;28;20058;-69
2023/02/28 10:13:44;;;;;;;5.53;4.10;;;;;;;4.94;100.00;103303.56;4994305;28;20438;-69
2023/02/28 10:16:24;;;;;;;5.72;3.63;;;;;;;5.11;100.00;103313.59;4994385;28;20049;-69
2023/02/28 10:18:57;;;;;;;9.75;3.92;;;;;;;4.79;100.00;103304.88;4984344;28;20023;-69
2023/02/28 10:21:33;;;;;;;8.57;4.15;;;;;;;4.56;100.00;103319.84;5002752;28;20051;-69
2023/02/28 10:24:21;;;;;;;6.10;4.10;;;;;;;4.54;100.00;103317.19;5003456;28;20030;-68
2023/02/28 10:26:47;;;;;;;4.43;3.90;;;;;;;4.61;100.00;103306.94;5002767;28;20033;-69
2023/02/28 10:29:13;;;;;;;7.45;3.42;;;;;;;4.69;100.00;103315.88;5003959;28;20044;-70
2023/02/28 10:31:39;;;;;;;4.70;3.17;;;;;;;4.70;100.00;103315.06;5002077;28;20113;-68
2023/02/28 10:34:06;;;;;;;7.50;3.50;;;;;;;4.75;100.00;103313.44;5004526;28;20538;-69
2023/02/28 10:36:31;;;;;;;8.63;3.42;;;;;;;4.87;100.00;103319.88;5003947;28;20044;-68
2023/02/28 10:38:57;;;;;;;6.90;3.47;;;;;;;4.87;100.00;103320.78;5002706;28;20037;-68
2023/02/28 10:41:35;;;;;;;5.20;3.80;;;;;;;4.95;100.00;103321.00;4996719;28;20023;-68
2023/02/28 10:44:18;;;;;;;5.85;3.15;;;;;;;5.05;100.00;103311.69;5000484;28;20034;-68
2023/02/28 10:46:43;;;;;;;3.38;2.60;;;;;;;5.22;99.91;103308.69;4979509;28;20042;-69
2023/02/28 10:49:19;;;;;;;4.07;2.75;;;;;;;5.16;100.00;103302.47;4996788;28;20033;-71
2023/02/28 10:51:45;;;;;;;3.35;3.05;;;;;;;5.40;100.00;103300.50;5003810;28;20036;-68
2023/02/28 10:54:19;;;;;;;3.03;2.50;;;;;;;5.82;98.07;103297.22;5002048;28;20022;-69
2023/02/28 10:56:44;;;;;;;2.97;2.65;;;;;;;5.84;97.21;103301.63;4990502;28;20048;-69
2023/02/28 10:59:29;;;;;;;6.00;2.80;;;;;;;5.88;96.96;103290.41;5001185;28;20466;-70
2023/02/28 11:01:55;;;;;;;5.22;2.78;;;;;;;5.66;96.49;103285.50;5001064;28;20033;-69
2023/02/28 11:04:39;;;;;;;6.38;3.35;;;;;;;5.66;96.42;103298.56;4989178;28;20027;-71
2023/02/28 11:07:18;;;;;;;2.88;2.58;;;;;;;5.87;95.51;103292.13;5007573;28;20109;-68
2023/02/28 11:10:16;;;;;;;3.33;2.58;;;;;;;5.76;92.24;103289.25;5006895;28;20014;-70
2023/02/28 11:12:42;;;;;;;6.05;2.55;;;;;;;5.72;89.39;103290.00;5005214;28;20420;-70
2023/02/28 11:15:20;;;;;;;4.32;2.22;;;;;;;5.75;86.72;103290.06;5000264;28;20026;-70
2023/02/28 11:17:54;;;;;;;2.53;2.05;;;;;;;5.86;85.22;103284.22;4990018;28;20041;-69
2023/02/28 11:20:24;;;;;;;2.45;1.90;;;;;;;6.12;83.40;103279.69;5005060;28;20029;-69
2023/02/28 11:22:51;;;;;;;3.05;2.20;;;;;;;6.27;81.22;103275.66;5003283;28;20090;-70
2023/02/28 11:25:23;;;;;;;3.38;2.17;;;;;;;6.41;81.89;103268.16;5004008;28;20026;-69
2023/02/28 11:27:50;;;;;;;4.15;2.30;;;;;;;6.57;81.04;103277.22;5002781;28;20060;-70
2023/02/28 11:30:31;;;;;;;2.35;1.85;;;;;;;6.13;73.71;103281.47;5006987;28;20106;-70
2023/02/28 11:32:56;;;;;;;2.90;2.03;;;;;;;6.15;74.62;103284.13;4984858;28;20113;-70
2023/02/28 11:35:34;;;;;;;2.83;1.90;;;;;;;6.47;75.04;103276.09;4987592;28;20551;-69